createdAt,value
2022-07-29T00:01:55.913Z,1.90
2022-07-29T00:04:23.507Z,1.90
2022-07-29T00:06:51.216Z,1.90
2022-07-29T00:09:18.798Z,1.90
2022-07-29T00:11:46.427Z,2.00
2022-07-29T00:14:15.472Z,2.10
2022-07-29T00:16:43.473Z,2.67
2022-07-29T00:19:11.066Z,2.30
2022-07-29T00:21:40.189Z,2.10
2022-07-29T00:24:08.157Z,2.10
2022-07-29T00:26:35.773Z,2.20
2022-07-29T00:29:32.874Z,1.90
2022-07-29T00:31:53.957Z,2.10
2022-07-29T00:34:38.567Z,1.97
2022-07-29T00:37:06.179Z,2.17
2022-07-29T00:39:35.523Z,1.80
2022-07-29T00:42:04.930Z,2.10
2022-07-29T00:44:32.472Z,2.20
2022-07-29T00:47:01.467Z,3.27
2022-07-29T00:49:29.140Z,1.70
2022-07-29T00:51:56.805Z,1.60
2022-07-29T00:54:24.465Z,2.17
2022-07-29T00:56:52.033Z,2.60
2022-07-29T00:59:19.645Z,2.00
2022-07-29T01:01:47.313Z,2.20
2022-07-29T01:04:16.512Z,1.83
2022-07-29T01:06:45.129Z,2.00
2022-07-29T01:09:13.055Z,1.83
2022-07-29T01:11:41.196Z,1.97
2022-07-29T01:14:09.231Z,2.33
2022-07-29T01:16:41.912Z,1.83
2022-07-29T01:19:19.854Z,2.20
2022-07-29T01:21:53.872Z,2.50
2022-07-29T01:24:45.054Z,1.90
2022-07-29T01:27:26.737Z,2.40
2022-07-29T01:29:58.240Z,2.10
2022-07-29T01:32:29.548Z,2.43
2022-07-29T01:35:00.926Z,2.20
2022-07-29T01:37:31.874Z,2.77
2022-07-29T01:40:00.730Z,2.67
2022-07-29T01:42:33.875Z,2.20
2022-07-29T01:45:05.235Z,2.30
2022-07-29T01:47:35.804Z,2.13
2022-07-29T01:50:06.140Z,2.50
2022-07-29T01:52:38.212Z,2.97
2022-07-29T01:55:10.067Z,2.43
2022-07-29T01:57:38.495Z,2.83
2022-07-29T02:00:09.127Z,2.90
2022-07-29T02:02:40.062Z,2.50
2022-07-29T02:05:09.650Z,2.20
2022-07-29T02:07:38.883Z,2.03
2022-07-29T02:10:09.398Z,2.77
2022-07-29T02:12:38.128Z,2.60
2022-07-29T02:15:08.638Z,2.30
2022-07-29T02:17:43.261Z,4.00
2022-07-29T02:20:11.851Z,2.67
2022-07-29T02:22:40.437Z,2.30
2022-07-29T02:25:13.838Z,2.00
2022-07-29T02:27:43.237Z,2.30
2022-07-29T02:30:14.163Z,2.73
2022-07-29T02:32:43.643Z,2.47
2022-07-29T02:35:11.697Z,2.20
2022-07-29T02:37:39.581Z,2.50
2022-07-29T02:40:11.410Z,2.60
2022-07-29T02:42:39.835Z,2.43
2022-07-29T02:45:09.252Z,2.73
2022-07-29T02:47:42.730Z,3.17
2022-07-29T02:50:14.477Z,2.83
2022-07-29T02:52:45.216Z,2.30
2022-07-29T02:55:17.150Z,2.53
2022-07-29T02:57:55.172Z,2.30
2022-07-29T03:00:24.049Z,2.13
2022-07-29T03:02:54.790Z,2.30
2022-07-29T03:05:23.131Z,2.50
2022-07-29T03:07:53.804Z,2.50
2022-07-29T03:10:23.223Z,2.30
2022-07-29T03:12:50.917Z,2.40
2022-07-29T03:15:18.683Z,2.47
2022-07-29T03:17:46.453Z,2.77
2022-07-29T03:20:15.791Z,2.50
2022-07-29T03:22:44.670Z,2.80
2022-07-29T03:25:13.195Z,2.40
2022-07-29T03:27:41.069Z,2.33
2022-07-29T03:30:10.360Z,3.47
2022-07-29T03:32:38.401Z,2.70
2022-07-29T03:35:08.700Z,2.43
2022-07-29T03:37:38.133Z,2.77
2022-07-29T03:40:08.567Z,3.63
2022-07-29T03:42:39.847Z,2.67
2022-07-29T03:45:11.116Z,3.40
2022-07-29T03:47:51.636Z,2.40
2022-07-29T03:50:21.886Z,2.33
2022-07-29T03:52:51.189Z,3.07
2022-07-29T03:55:18.830Z,3.40
2022-07-29T03:57:47.561Z,2.60
2022-07-29T04:00:16.316Z,2.73
2022-07-29T04:02:49.141Z,3.10
2022-07-29T04:05:17.145Z,3.00
2022-07-29T04:07:45.702Z,2.40
2022-07-29T04:10:16.485Z,2.63
2022-07-29T04:12:44.111Z,2.70
2022-07-29T04:15:13.043Z,3.40
2022-07-29T04:17:40.625Z,3.20
2022-07-29T04:20:09.446Z,2.90
2022-07-29T04:22:37.058Z,3.10
2022-07-29T04:25:05.127Z,2.60
2022-07-29T04:27:34.097Z,2.57
2022-07-29T04:30:01.745Z,3.00
2022-07-29T04:32:29.382Z,3.30
2022-07-29T04:34:56.984Z,3.30
2022-07-29T04:37:24.755Z,3.30
2022-07-29T04:39:52.328Z,2.67
2022-07-29T04:42:19.945Z,3.30
2022-07-29T04:44:56.783Z,3.33
2022-07-29T04:47:24.765Z,2.50
2022-07-29T04:49:52.488Z,2.87
2022-07-29T04:52:20.086Z,2.90
2022-07-29T04:54:47.658Z,2.77
2022-07-29T04:57:15.356Z,2.60
2022-07-29T04:59:42.968Z,4.00
2022-07-29T05:02:12.180Z,3.20
2022-07-29T05:04:39.795Z,3.03
2022-07-29T05:07:07.437Z,2.97
2022-07-29T05:09:35.049Z,2.87
2022-07-29T05:12:02.751Z,2.50
2022-07-29T05:14:30.426Z,2.80
2022-07-29T05:16:58.501Z,2.73
2022-07-29T05:19:27.440Z,2.57
2022-07-29T05:21:55.019Z,2.90
2022-07-29T05:24:22.636Z,3.20
2022-07-29T05:26:50.348Z,3.00
2022-07-29T05:29:43.770Z,3.43
2022-07-29T05:32:06.358Z,3.37
2022-07-29T05:34:35.424Z,2.60
2022-07-29T05:37:03.148Z,3.10
2022-07-29T05:39:47.167Z,3.10
2022-07-29T05:42:16.848Z,2.87
2022-07-29T05:44:44.475Z,3.73
2022-07-29T05:47:12.487Z,2.83
2022-07-29T05:49:41.465Z,3.07
2022-07-29T05:52:10.037Z,2.30
2022-07-29T05:54:37.760Z,3.30
2022-07-29T05:57:06.139Z,3.07
2022-07-29T05:59:34.000Z,3.20
2022-07-29T06:02:01.632Z,3.63
2022-07-29T06:04:29.359Z,3.17
2022-07-29T06:06:58.381Z,2.70
2022-07-29T06:09:26.899Z,5.83
2022-07-29T06:11:54.657Z,5.77
2022-07-29T06:14:22.379Z,3.50
2022-07-29T06:16:50.250Z,3.17
2022-07-29T06:19:17.951Z,2.43
2022-07-29T06:21:46.362Z,3.40
2022-07-29T06:24:16.565Z,2.87
2022-07-29T06:26:44.786Z,2.60
2022-07-29T06:29:12.630Z,3.10
2022-07-29T06:31:40.979Z,3.90
2022-07-29T06:34:08.735Z,3.07
2022-07-29T06:36:36.782Z,3.30
2022-07-29T06:39:07.077Z,2.20
2022-07-29T06:41:36.673Z,3.10
2022-07-29T06:44:10.747Z,3.30
2022-07-29T06:46:38.498Z,2.33
2022-07-29T06:49:06.363Z,2.63
2022-07-29T06:51:34.161Z,2.27
2022-07-29T06:54:03.746Z,2.53
2022-07-29T06:56:32.422Z,2.50
2022-07-29T06:59:08.119Z,2.93
2022-07-29T07:01:35.891Z,2.07
2022-07-29T07:04:03.559Z,2.57
2022-07-29T07:06:31.334Z,2.97
2022-07-29T07:08:58.908Z,2.60
2022-07-29T07:11:26.519Z,2.63
2022-07-29T07:13:55.441Z,2.70
2022-07-29T07:16:27.341Z,2.70
2022-07-29T07:18:55.003Z,2.37
2022-07-29T07:21:22.735Z,2.70
2022-07-29T07:23:50.380Z,2.27
2022-07-29T07:26:17.996Z,2.90
2022-07-29T07:28:45.651Z,2.80
2022-07-29T07:31:13.755Z,3.00
2022-07-29T07:33:42.713Z,2.40
2022-07-29T07:36:10.320Z,2.07
2022-07-29T07:38:38.028Z,3.10
2022-07-29T07:41:05.755Z,2.50
2022-07-29T07:43:33.373Z,2.73
2022-07-29T07:46:01.120Z,3.00
2022-07-29T07:48:28.882Z,3.37
2022-07-29T07:50:57.890Z,3.90
2022-07-29T07:53:26.130Z,2.20
2022-07-29T07:56:10.054Z,2.57
2022-07-29T07:58:39.432Z,3.47
2022-07-29T08:01:07.393Z,2.97
2022-07-29T08:03:35.476Z,3.33
2022-07-29T08:06:05.113Z,2.53
2022-07-29T08:08:32.763Z,2.20
2022-07-29T08:11:08.301Z,2.30
2022-07-29T08:13:37.323Z,2.60
2022-07-29T08:16:12.978Z,2.50
2022-07-29T08:18:42.289Z,2.53
2022-07-29T08:21:11.324Z,2.50
2022-07-29T08:23:52.727Z,2.77
2022-07-29T08:26:23.505Z,2.80
2022-07-29T08:28:51.882Z,2.37
2022-07-29T08:31:19.719Z,2.50
2022-07-29T08:33:47.422Z,2.30
2022-07-29T08:36:16.330Z,2.53
2022-07-29T08:38:44.055Z,2.57
2022-07-29T08:41:11.789Z,2.97
2022-07-29T08:43:39.624Z,2.13
2022-07-29T08:46:07.373Z,2.17
2022-07-29T08:48:35.639Z,2.53
2022-07-29T08:51:04.308Z,2.40
2022-07-29T08:53:34.297Z,3.17
2022-07-29T08:56:02.745Z,2.20
2022-07-29T08:58:37.024Z,2.73
2022-07-29T09:01:07.772Z,2.20
2022-07-29T09:03:42.270Z,2.70
2022-07-29T09:06:10.175Z,2.20
2022-07-29T09:08:39.533Z,2.07
2022-07-29T09:11:08.434Z,2.13
2022-07-29T09:13:36.279Z,2.20
2022-07-29T09:16:09.055Z,2.60
2022-07-29T09:18:38.851Z,2.00
2022-07-29T09:21:24.577Z,2.23
2022-07-29T09:24:04.618Z,2.63
2022-07-29T09:26:33.594Z,2.10
2022-07-29T09:29:02.158Z,2.67
2022-07-29T09:31:35.357Z,2.33
2022-07-29T09:34:03.606Z,1.93
2022-07-29T09:36:31.365Z,2.30
2022-07-29T09:39:00.778Z,2.23
2022-07-29T09:41:29.954Z,2.40
2022-07-29T09:43:58.187Z,2.40
2022-07-29T09:46:26.526Z,2.50
2022-07-29T09:49:10.638Z,1.97
2022-07-29T09:51:38.976Z,2.13
2022-07-29T09:54:24.906Z,2.03
2022-07-29T09:56:54.966Z,2.13
2022-07-29T09:59:27.285Z,2.17
2022-07-29T10:01:55.480Z,2.20
2022-07-29T10:04:23.378Z,2.07
2022-07-29T10:07:03.946Z,2.17
2022-07-29T10:09:32.462Z,2.60
2022-07-29T10:12:15.346Z,2.33
2022-07-29T10:14:44.006Z,2.07
2022-07-29T10:17:12.754Z,2.00
2022-07-29T10:19:41.010Z,2.10
2022-07-29T10:22:10.565Z,2.00
2022-07-29T10:24:39.979Z,2.10
2022-07-29T10:27:11.551Z,1.93
2022-07-29T10:29:39.214Z,1.83
2022-07-29T10:32:20.861Z,1.70
2022-07-29T10:34:59.994Z,2.00
2022-07-29T10:37:35.967Z,2.20
2022-07-29T10:40:41.217Z,2.60
2022-07-29T10:43:19.487Z,2.30
2022-07-29T10:45:50.297Z,2.10
2022-07-29T10:48:20.368Z,2.20
2022-07-29T10:50:56.173Z,2.47
2022-07-29T10:53:24.773Z,2.13
2022-07-29T10:55:53.800Z,1.80
2022-07-29T10:58:24.572Z,2.17
2022-07-29T11:00:54.101Z,1.90
2022-07-29T11:03:49.316Z,1.90
2022-07-29T11:06:27.023Z,1.83
2022-07-29T11:09:18.075Z,1.97
2022-07-29T11:11:51.412Z,1.67
2022-07-29T11:14:26.498Z,2.10
2022-07-29T11:17:06.473Z,2.83
2022-07-29T11:19:35.845Z,2.13
2022-07-29T11:22:04.684Z,2.07
2022-07-29T11:24:35.142Z,2.37
2022-07-29T11:27:13.658Z,2.00
2022-07-29T11:29:50.655Z,2.10
2022-07-29T11:32:22.728Z,2.30
2022-07-29T11:34:51.686Z,1.90
2022-07-29T11:40:18.335Z,2.20
2022-07-29T11:42:52.740Z,2.03
2022-07-29T11:45:43.082Z,1.80
2022-07-29T11:48:29.080Z,1.77
2022-07-29T11:51:00.995Z,1.77
2022-07-29T11:53:33.069Z,1.90
2022-07-29T11:56:02.736Z,1.80
2022-07-29T11:58:31.310Z,1.90
2022-07-29T12:01:04.998Z,2.27
2022-07-29T12:03:36.175Z,1.87
2022-07-29T12:06:07.921Z,2.07
2022-07-29T12:07:03.416Z,1.83
2022-07-29T12:08:42.139Z,2.07
2022-07-29T12:11:17.728Z,2.20
2022-07-29T12:13:49.405Z,1.70
2022-07-29T12:16:25.911Z,1.93
2022-07-29T12:19:02.086Z,2.67
2022-07-29T12:21:30.999Z,2.10
2022-07-29T12:24:05.984Z,1.90
2022-07-29T12:26:37.583Z,1.73
2022-07-29T12:29:11.217Z,2.00
2022-07-29T12:31:45.558Z,1.87
2022-07-29T12:34:13.912Z,2.03
2022-07-29T12:36:42.622Z,1.80
2022-07-29T12:39:11.120Z,1.67
2022-07-29T12:41:39.583Z,2.50
2022-07-29T12:44:07.353Z,2.10
2022-07-29T12:46:35.098Z,1.90
2022-07-29T12:49:05.349Z,1.93
2022-07-29T12:51:34.555Z,1.77
2022-07-29T12:54:07.953Z,1.80
2022-07-29T12:56:44.468Z,1.90
2022-07-29T12:59:18.562Z,2.20
2022-07-29T13:01:47.968Z,2.03
2022-07-29T13:04:27.739Z,2.17
2022-07-29T13:07:01.492Z,1.83
2022-07-29T13:09:38.879Z,2.10
2022-07-29T13:12:10.914Z,1.63
2022-07-29T13:14:40.680Z,2.37
2022-07-29T13:17:10.814Z,2.17
2022-07-29T13:19:42.135Z,1.47
2022-07-29T13:22:10.562Z,1.57
2022-07-29T13:24:51.643Z,2.30
2022-07-29T13:27:19.887Z,2.10
2022-07-29T13:29:48.261Z,2.53
2022-07-29T13:32:16.589Z,2.30
2022-07-29T13:34:45.544Z,2.50
2022-07-29T13:37:13.757Z,2.10
2022-07-29T13:39:41.895Z,1.90
2022-07-29T13:42:20.956Z,2.67
2022-07-29T13:44:49.705Z,2.57
2022-07-29T13:47:17.970Z,2.20
2022-07-29T13:49:46.965Z,2.47
2022-07-29T13:52:15.583Z,2.27
2022-07-29T13:54:43.865Z,2.93
2022-07-29T13:57:12.339Z,2.80
2022-07-29T13:59:40.107Z,2.57
2022-07-29T14:02:08.730Z,2.27
2022-07-29T14:04:36.484Z,2.23
2022-07-29T14:07:08.526Z,3.33
2022-07-29T14:09:37.350Z,2.40
2022-07-29T14:12:10.139Z,2.37
2022-07-29T14:14:38.045Z,2.70
2022-07-29T14:17:07.226Z,2.00
2022-07-29T14:19:38.689Z,2.20
2022-07-29T14:22:09.102Z,2.00
2022-07-29T14:24:37.919Z,2.53
2022-07-29T14:27:05.806Z,1.77
2022-07-29T14:29:37.413Z,2.50
2022-07-29T14:32:07.013Z,1.90
2022-07-29T14:34:35.110Z,2.40
2022-07-29T14:37:03.901Z,2.00
2022-07-29T14:39:33.337Z,2.70
2022-07-29T14:42:01.722Z,2.20
2022-07-29T14:44:32.475Z,2.10
2022-07-29T14:47:00.346Z,2.20
2022-07-29T14:49:27.983Z,2.10
2022-07-29T14:51:56.054Z,2.87
2022-07-29T14:54:24.009Z,2.00
2022-07-29T14:56:56.137Z,2.47
2022-07-29T14:59:24.303Z,2.07
2022-07-29T15:01:51.971Z,2.30
2022-07-29T15:04:19.982Z,2.30
2022-07-29T15:06:47.589Z,2.63
2022-07-29T15:09:15.401Z,2.70
2022-07-29T15:11:43.068Z,2.27
2022-07-29T15:14:12.100Z,2.47
2022-07-29T15:16:43.885Z,2.33
2022-07-29T15:19:14.565Z,2.30
2022-07-29T15:21:48.838Z,2.53
2022-07-29T15:24:16.818Z,2.10
2022-07-29T15:26:45.671Z,2.17
2022-07-29T15:29:15.326Z,1.90
2022-07-29T15:31:43.149Z,1.83
2022-07-29T15:34:11.366Z,2.30
2022-07-29T15:36:54.605Z,1.93
2022-07-29T15:39:23.379Z,2.50
2022-07-29T15:41:51.615Z,2.37
2022-07-29T15:44:21.320Z,2.37
2022-07-29T15:47:07.210Z,2.40
2022-07-29T15:49:47.721Z,2.17
2022-07-29T15:52:17.834Z,2.20
2022-07-29T15:54:45.683Z,1.97
2022-07-29T15:57:13.507Z,2.70
2022-07-29T15:59:42.544Z,2.10
2022-07-29T16:02:11.175Z,1.90
2022-07-29T16:04:39.037Z,2.33
2022-07-29T16:07:07.083Z,4.17
2022-07-29T16:09:38.174Z,2.60
2022-07-29T16:12:14.640Z,2.20
2022-07-29T16:14:44.305Z,1.90
2022-07-29T16:17:14.535Z,2.43
2022-07-29T16:19:43.260Z,2.50
2022-07-29T16:22:11.209Z,1.80
2022-07-29T16:24:39.086Z,2.20
2022-07-29T16:27:06.774Z,3.03
2022-07-29T16:29:34.544Z,2.30
2022-07-29T16:32:03.930Z,2.90
2022-07-29T16:34:31.776Z,2.30
2022-07-29T16:36:59.653Z,2.67
2022-07-29T16:39:27.565Z,2.57
2022-07-29T16:41:59.669Z,2.33
2022-07-29T16:44:28.756Z,2.63
2022-07-29T16:46:58.847Z,2.40
2022-07-29T16:49:29.601Z,2.97
2022-07-29T16:51:57.431Z,2.57
2022-07-29T16:54:26.756Z,2.50
2022-07-29T16:56:54.634Z,2.57
2022-07-29T16:59:22.820Z,2.20
2022-07-29T17:01:50.413Z,2.63
2022-07-29T17:04:18.152Z,2.53
2022-07-29T17:06:47.254Z,2.30
2022-07-29T17:09:15.856Z,2.57
2022-07-29T17:11:53.200Z,2.57
2022-07-29T17:14:24.132Z,1.93
2022-07-29T17:17:00.953Z,2.57
2022-07-29T17:19:30.937Z,2.40
2022-07-29T17:22:10.162Z,2.47
2022-07-29T17:24:40.858Z,2.20
2022-07-29T17:27:08.838Z,2.50
2022-07-29T17:29:36.781Z,2.43
2022-07-29T17:32:07.476Z,2.70
2022-07-29T17:34:35.963Z,1.93
2022-07-29T17:37:04.309Z,2.70
2022-07-29T17:39:32.086Z,2.07
2022-07-29T17:42:00.623Z,2.00
2022-07-29T17:44:28.758Z,2.27
2022-07-29T17:46:56.826Z,2.40
2022-07-29T17:49:24.734Z,2.20
2022-07-29T17:51:53.874Z,2.23
2022-07-29T17:54:29.247Z,2.97
2022-07-29T17:56:57.511Z,2.00
2022-07-29T17:59:25.591Z,2.33
2022-07-29T18:01:54.477Z,2.53
2022-07-29T18:04:23.613Z,2.63
2022-07-29T18:06:51.417Z,2.70
2022-07-29T18:09:19.259Z,2.63
2022-07-29T18:11:49.528Z,2.20
2022-07-29T18:14:17.374Z,2.60
2022-07-29T18:16:45.058Z,2.20
2022-07-29T18:19:12.844Z,2.27
2022-07-29T18:21:51.818Z,2.17
2022-07-29T18:24:25.167Z,2.70
2022-07-29T18:26:54.567Z,2.30
2022-07-29T18:29:22.736Z,2.13
2022-07-29T18:31:50.626Z,2.33
2022-07-29T18:34:18.325Z,2.60
2022-07-29T18:36:46.654Z,1.80
2022-07-29T18:39:21.267Z,1.80
2022-07-29T18:41:51.075Z,2.50
2022-07-29T18:44:22.126Z,2.53
2022-07-29T18:46:51.126Z,2.67
2022-07-29T18:49:19.313Z,2.00
2022-07-29T18:51:46.995Z,2.07
2022-07-29T18:54:14.722Z,1.90
2022-07-29T18:56:42.670Z,2.73
2022-07-29T18:59:10.576Z,2.20
2022-07-29T19:01:40.187Z,2.10
2022-07-29T19:04:08.335Z,2.60
2022-07-29T19:06:36.205Z,2.47
2022-07-29T19:09:04.617Z,2.20
2022-07-29T19:11:32.810Z,2.27
2022-07-29T19:14:00.567Z,2.70
2022-07-29T19:16:28.235Z,2.13
2022-07-29T19:18:57.452Z,2.63
2022-07-29T19:21:25.373Z,2.10
2022-07-29T19:24:05.850Z,2.10
2022-07-29T19:26:39.198Z,2.47
2022-07-29T19:29:06.938Z,2.13
2022-07-29T19:31:34.787Z,2.87
2022-07-29T19:34:03.991Z,2.90
2022-07-29T19:36:31.629Z,2.40
2022-07-29T19:39:00.028Z,3.00
2022-07-29T19:41:27.927Z,2.50
2022-07-29T19:43:56.001Z,2.40
2022-07-29T19:46:24.608Z,2.83
2022-07-29T19:48:53.006Z,2.70
2022-07-29T19:51:22.524Z,3.80
2022-07-29T19:53:50.408Z,2.60
2022-07-29T19:56:18.164Z,2.63
2022-07-29T19:58:46.178Z,2.40
2022-07-29T20:01:13.807Z,3.13
2022-07-29T20:03:41.501Z,2.57
2022-07-29T20:06:09.150Z,2.90
2022-07-29T20:08:38.244Z,2.77
2022-07-29T20:11:06.096Z,2.53
2022-07-29T20:13:35.335Z,2.87
2022-07-29T20:16:05.837Z,2.70
2022-07-29T20:18:33.660Z,2.90
2022-07-29T20:21:01.423Z,2.83
2022-07-29T20:23:29.156Z,2.63
2022-07-29T20:26:05.087Z,2.70
2022-07-29T20:28:35.118Z,2.37
2022-07-29T20:31:02.863Z,2.37
2022-07-29T20:33:30.437Z,2.47
2022-07-29T20:35:58.017Z,2.30
2022-07-29T20:38:25.633Z,2.17
2022-07-29T20:40:58.597Z,2.40
2022-07-29T20:43:27.688Z,3.20
2022-07-29T20:45:55.313Z,2.53
2022-07-29T20:48:23.009Z,2.60
2022-07-29T20:50:51.428Z,3.00
2022-07-29T20:53:20.361Z,3.27
2022-07-29T20:55:48.029Z,2.53
2022-07-29T20:58:15.740Z,2.73
2022-07-29T21:00:44.731Z,2.33
2022-07-29T21:03:12.237Z,3.50
2022-07-29T21:05:42.846Z,3.50
2022-07-29T21:08:11.853Z,3.03
2022-07-29T21:10:39.413Z,3.03
2022-07-29T21:13:06.998Z,2.80
2022-07-29T21:15:35.013Z,3.20
2022-07-29T21:18:05.966Z,3.07
2022-07-29T21:20:33.507Z,3.20
2022-07-29T21:23:01.034Z,2.43
2022-07-29T21:25:29.304Z,2.40
2022-07-29T21:28:14.521Z,2.83
2022-07-29T21:30:42.094Z,2.77
2022-07-29T21:33:11.156Z,2.87
2022-07-29T21:36:14.897Z,3.37
2022-07-29T21:38:26.347Z,2.70
2022-07-29T21:40:54.190Z,2.83
2022-07-29T21:43:22.473Z,3.30
2022-07-29T21:45:51.076Z,3.97
2022-07-29T21:48:21.014Z,2.90
2022-07-29T21:50:49.167Z,3.23
2022-07-29T21:53:17.049Z,2.90
2022-07-29T21:55:47.511Z,3.30
2022-07-29T21:58:16.266Z,3.30
2022-07-29T22:00:44.896Z,3.27
2022-07-29T22:03:12.595Z,3.33
2022-07-29T22:05:41.903Z,3.10
2022-07-29T22:08:09.506Z,3.00
2022-07-29T22:10:37.056Z,3.17
2022-07-29T22:13:04.642Z,3.80
2022-07-29T22:15:32.478Z,3.03
2022-07-29T22:18:00.362Z,3.30
2022-07-29T22:20:28.117Z,2.70
2022-07-29T22:22:56.949Z,3.60
2022-07-29T22:25:24.633Z,3.50
2022-07-29T22:27:52.127Z,3.43
2022-07-29T22:30:19.629Z,3.73
2022-07-29T22:32:47.848Z,3.20
2022-07-29T22:35:15.647Z,2.73
2022-07-29T22:37:44.780Z,3.50
2022-07-29T22:40:14.108Z,4.03
2022-07-29T22:42:41.722Z,2.93
2022-07-29T22:45:10.765Z,3.10
2022-07-29T22:47:48.205Z,2.87
2022-07-29T22:50:16.718Z,3.10
2022-07-29T22:52:44.337Z,3.70
2022-07-29T22:55:12.110Z,3.40
2022-07-29T22:57:41.003Z,3.83
2022-07-29T23:00:09.926Z,3.50
2022-07-29T23:02:38.142Z,3.77
2022-07-29T23:05:06.751Z,3.90
2022-07-29T23:07:34.337Z,3.00
2022-07-29T23:10:01.904Z,3.50
2022-07-29T23:12:29.487Z,3.27
2022-07-29T23:14:58.422Z,2.63
2022-07-29T23:17:26.056Z,3.40
2022-07-29T23:19:53.623Z,3.27
2022-07-29T23:22:21.127Z,4.00
2022-07-29T23:24:48.989Z,3.90
2022-07-29T23:27:16.653Z,3.50
2022-07-29T23:29:44.295Z,3.00
2022-07-29T23:32:13.311Z,3.43
2022-07-29T23:34:40.973Z,3.80
2022-07-29T23:37:08.546Z,4.07
2022-07-29T23:39:36.046Z,3.70
2022-07-29T23:42:04.746Z,3.57
2022-07-29T23:44:32.273Z,3.90
2022-07-29T23:47:00.256Z,4.33
2022-07-29T23:49:29.346Z,3.40
2022-07-29T23:51:56.969Z,3.43
2022-07-29T23:54:24.481Z,3.00
2022-07-29T23:56:51.998Z,4.03
2022-07-29T23:59:19.681Z,3.60
